Marc Roussel

Recruteur en chef - OGC Nice
20 Nov 2027
Samedi
Processus

Personnalité

Adaptabilité (5) Ambition (19) Controverse (12) Loyauté (4) Pression (16) Professionnalisme (7) Sportivité (3) Tempérament (4)

Profil

Style d'entraînement Démocratique
Diplôme Continental C
Détermination 5
Gestion des joueurs 14
Motivation 5
Discipline 8
Satisfaction professionnelle
85%
Fatigue
0%
Rôle Recruteur en chef
Salaire 80.0K p/s
Contrat 14.03.2028

Performance

Comportement Bon
Efficacité de l'entraînement
40%
Développement des joueurs
55%
Prévention des blessures
60%
Mise en place tactique
75%

Événements récents

A participé à une réunion de recrutement maintenant
A recommandé une cible de transfert maintenant
A recommandé une cible de transfert maintenant
A recommandé une cible de transfert maintenant
A participé à une réunion de recrutement maintenant
A recommandé une cible de transfert maintenant
A évalué un joueur maintenant
A évalué un joueur maintenant

Suivi en cours

211
Joueur Club Statut Capacité Confiance Observé Dernière observation Dernier vote
Christos Mouzakitis Hull City Actif 134 / 138 40% 2 18.11.2027 -
Chemsdine Talbi Sunderland Actif 151 / 143 40% 4 18.11.2027 -
Sam Curtis Swindon Town Actif 102 / 106 40% 1 18.11.2027 -
Guy Noël Zohouri Le Havre AC Actif 120 / 124 40% 1 18.11.2027 -
Liam Delap Nottingham Forest Actif 150 / 153 40% 1 18.11.2027 -
Raúl Moro Osasuna Actif 141 / 144 40% 1 18.11.2027 -
Mohamed-Ali Cho Hull City Actif 139 / 146 40% 4 17.11.2027 -
Eli Junior Kroupi Bournemouth Actif 140 / 150 40% 3 17.11.2027 -
Víctor Muñoz Queens Park Rangers Actif 149 / 147 40% 2 17.11.2027 -
Loum Tchaouna Coventry City Actif 146 / 141 40% 13 16.11.2027 -
Pablo Pagis Sochaux Actif 138 / 124 40% 4 16.11.2027 -
Trey Nyoni Doncaster Rovers Actif 142 / 140 40% 1 15.11.2027 -
Bade Aluko Accrington Stanley Actif 122 / 133 40% 1 15.11.2027 -
Francis Gomez Accrington Stanley Actif 112 / 116 40% 1 15.11.2027 -
Warren Zaïre-Emery Paris Saint-Germain Actif 152 / 163 40% 9 13.11.2027 -
Conor Bradley Blackburn Rovers Actif 162 / 167 40% 3 13.11.2027 -
Ngal'Ayel Mukau Sochaux Actif 136 / 155 40% 2 13.11.2027 -
Nico Paz Nacional Actif 155 / 168 40% 3 11.11.2027 -
Robert FC Copenhagen Actif 125 / 124 40% 4 11.11.2027 -
Rayane Bounida Ajax Actif 132 / 134 40% 1 11.11.2027 -
Ayyoub Bouaddi Blackpool Actif 144 / 150 40% 4 10.11.2027 -
Kenan Busuladžić Malmo FF Actif 105 / 125 40% 2 10.11.2027 -
Marius Broholm LOSC Lille Actif 140 / 129 40% 1 10.11.2027 -
Adam Karabec Sparta Prague Actif 135 / 129 40% 1 10.11.2027 -
Cheveyo Tsawa Standard Liege Actif 117 / 125 40% 1 10.11.2027 -
Jorrel Hato Chelsea Actif 154 / 151 40% 2 09.11.2027 -
Luis Otávio Toronto FC Actif 100 / 130 40% 1 09.11.2027 -
Roger François Udinese Actif 150 / 150 40% 13 06.11.2027 -
Arthur Atta Fiorentina Actif 148 / 151 40% 11 06.11.2027 -
Julien Duranville Olympique Lyonnais Actif 130 / 142 40% 1 06.11.2027 -
Antoine Bernard Chamois Niortais Actif 149 / 153 40% 14 05.11.2027 Observer
Senny Mayulu Paris Saint-Germain Actif 140 / 162 40% 2 05.11.2027 -
Isaac Price West Bromwich Albion Actif 133 / 131 40% 2 05.11.2027 -
Fredrik Sjøvold Bodo/Glimt Actif 140 / 120 40% 4 04.11.2027 -
Dayann Methalie Everton Actif 133 / 134 40% 5 03.11.2027 -
Julio Enciso Ipswich Town Actif 151 / 150 40% 2 03.11.2027 -
Kamory Doumbia FC Nantes Actif 145 / 154 40% 3 02.11.2027 -
Yankuba Minteh Brighton Actif 150 / 158 40% 1 02.11.2027 -
Tino Livramento Newcastle United Actif 166 / 159 40% 3 01.11.2027 -
Kévin Danois AJ Auxerre Actif 134 / 144 40% 4 31.10.2027 -
Mathys Tel Stade Rennais Actif 160 / 155 40% 2 31.10.2027 -
Franjo Ivanović Benfica Actif 133 / 139 40% 2 30.10.2027 -
Hákon Arnar Haraldsson LOSC Lille Actif 150 / 149 40% 5 29.10.2027 -
Marlon Gomes Bahia Actif 142 / 147 40% 3 29.10.2027 -
Dário Essugo Chelsea Actif 140 / 143 40% 1 28.10.2027 -
Alex Scott Bournemouth Actif 155 / 164 40% 3 27.10.2027 -
Paxten Aaronson Colorado Rapids Actif 136 / 149 40% 5 27.10.2027 -
Carlos Alcaraz Everton Actif 151 / 155 40% 2 25.10.2027 -
Gonzalo Fulham Actif 150 / 153 40% 1 25.10.2027 -
Shea Charles Southampton Actif 145 / 144 40% 1 24.10.2027 -
Allan Oxford United Actif 138 / 146 40% 1 22.10.2027 -
Christantus Uche Getafe Actif 147 / 138 40% 1 22.10.2027 -
Yeremay Deportivo La Coruña Actif 146 / 158 40% 1 20.10.2027 -
Josh King Derby County Actif 149 / 149 40% 1 19.10.2027 -
Josh Nichols Tranmere Rovers Actif 116 / 127 40% 1 19.10.2027 -
William Osula Wrexham Actif 140 / 142 40% 1 19.10.2027 -
Stanis Idumbo FC Metz Actif 133 / 138 40% 1 18.10.2027 -
Wilson Odobert Norwich City Actif 148 / 142 40% 2 14.10.2027 -
Omar El Hilali Espanyol Actif 148 / 144 40% 2 14.10.2027 -
Jeanuël Belocian Bayer Leverkusen Actif 138 / 139 40% 2 13.10.2027 -
El Hadji Malick Diouf Brentford Actif 140 / 152 40% 1 12.10.2027 -
Thierno Barry Watford Actif 143 / 142 40% 2 10.10.2027 -
Savinho Tottenham Actif 156 / 154 40% 1 10.10.2027 -
Ilias Akhomach Villarreal Actif 147 / 146 40% 1 10.10.2027 -
Jan Virgili Club Brugge Actif 136 / 132 40% 2 09.10.2027 -
Carlos Forbs Club Brugge Actif 138 / 132 40% 1 09.10.2027 -
Nacer Mignolet KV Oostende Actif 137 / 146 40% 8 06.10.2027 -
Noah Nartey Olympique Lyonnais Actif 137 / 129 40% 2 06.10.2027 -
Giovanni Leoni Mansfield Town Actif 132 / 141 40% 1 06.10.2027 -
Halam Loboa Independiente Medellin Actif 130 / 134 40% 1 06.10.2027 -
Marc Bernal Valladolid Actif 146 / 159 40% 1 06.10.2027 -
Ilay Camara Anderlecht Actif 131 / 137 40% 13 04.10.2027 -
Zinho Castagne KV Oostende Actif 139 / 146 40% 5 04.10.2027 -
Félix Lemaréchal Club Brugge Actif 144 / 139 40% 9 03.10.2027 -
Tyler Morton Olympique Lyonnais Actif 143 / 150 40% 6 03.10.2027 -
Agustín Giay Palmeiras Actif 122 / 152 40% 2 03.10.2027 -
Xavi Simons Tottenham Actif 167 / 169 40% 1 29.09.2027 -
Roméo Lavia Chelsea Actif 151 / 148 40% 1 24.09.2027 -
Rodrigo Gomes Wolverhampton Actif 142 / 152 40% 1 23.09.2027 -
Kota Tawaratsumida Gamba Osaka Actif 133 / 130 40% 1 22.09.2027 -
Mikel Jauregizar Athletic Bilbao Actif 165 / 168 40% 1 21.09.2027 -
Habib Diarra Sunderland Actif 150 / 153 40% 6 19.09.2027 -
Matteo Dams Club Brugge Actif 129 / 128 40% 2 17.09.2027 -
Joaquín Panichelli FC Nantes Actif 137 / 145 40% 1 16.09.2027 -
Bazoumana Touré Newcastle United Actif 140 / 152 40% 1 14.09.2027 -
Yoan Bonny Palermo Actif 144 / 149 40% 1 12.09.2027 -
Malo Gusto Chelsea Actif 158 / 158 40% 2 06.09.2027 -
Désiré Doué Paris Saint-Germain Refusé 161 / 177 40% 2 06.09.2027 Plus d'infos
Khvicha Kvaratskhelia Inter Actif 173 / 164 40% 9 16.08.2027 -
Fran García Betis Perdu 159 / 146 40% 1 16.08.2027 -
Lassine Sinayoko Paris FC Actif 140 / 142 69% 1 19.07.2027 Approuver
Emile Smith Rowe Fulham Actif 150 / 147 40% 1 14.07.2027 -
Jon Morcillo Almería Actif 133 / 127 40% 1 14.07.2027 -
Armand Laurienté Sassuolo Actif 137 / 139 40% 1 14.07.2027 -
Clément Akpa AJ Auxerre Perdu 138 / 144 69% 1 02.06.2027 -
Nicolas Jackson Aston Villa Actif 147 / 142 40% 1 31.05.2027 -
Kiernan Dewsbury-Hall Everton Actif 155 / 144 40% 1 31.05.2027 -
Boubacar Kamara Aston Villa Perdu 163 / 161 40% 17 30.05.2027 -
Brooke Norton-Cuffy Hull City Actif 137 / 134 40% 6 30.05.2027 -
Ethan Ampadu Leeds United Actif 144 / 146 40% 1 30.05.2027 -
Nuno Mendes Paris Saint-Germain Actif 176 / 166 40% 12 28.05.2027 -
Maxence Lacroix Chelsea Actif 149 / 148 40% 6 28.05.2027 -
Pierre Kalulu Juventus Actif 152 / 150 40% 14 27.05.2027 -
Guille Rosas Gijón Actif 142 / 132 40% 1 27.05.2027 -
Manu Koné AS Roma Actif 158 / 169 40% 16 25.05.2027 -
Levi Colwill Chelsea Actif 165 / 157 40% 7 25.05.2027 -
Wesley Fofana Chelsea Actif 167 / 168 40% 5 24.05.2027 -
Alberto Costa Porto Actif 146 / 138 40% 2 24.05.2027 -
Tariq Lamptey Queens Park Rangers Actif 138 / 124 40% 4 22.05.2027 -
James Garner Everton Actif 149 / 148 40% 5 22.05.2027 -
Sven Botman Newcastle United Actif 162 / 164 40% 3 21.05.2027 -
Florentino Luís Ipswich Town Actif 143 / 146 40% 4 21.05.2027 -
Neco Williams Nottingham Forest Actif 149 / 139 40% 1 21.05.2027 -
Ismaël Doukouré RC Strasbourg Actif 130 / 141 40% 6 19.05.2027 -
Ramón Terrats Getafe Actif 143 / 147 40% 3 18.05.2027 -
Adam Wharton Crystal Palace Actif 158 / 156 40% 1 18.05.2027 -
Oumar Solet Udinese Actif 144 / 154 40% 9 16.05.2027 -
Odilon Kossounou Atalanta Actif 149 / 148 40% 2 16.05.2027 -
Tyrell Malacia Derby County Actif 141 / 135 40% 7 13.05.2027 -
Samson Baidoo RC Lens Actif 136 / 137 40% 1 13.05.2027 -
Jacob Greaves Ipswich Town Actif 142 / 125 40% 4 12.05.2027 -
Tim Iroegbunam Hull City Actif 142 / 144 40% 2 11.05.2027 -
André Wolverhampton Actif 139 / 152 40% 1 07.05.2027 -
Jack Hinshelwood Brighton Actif 146 / 144 40% 1 06.05.2027 -
Jan Paul van Hecke Tottenham Actif 162 / 148 40% 7 05.05.2027 -
Nathan Collins Brentford Actif 143 / 148 40% 2 05.05.2027 -
Amadou Onana Newcastle United Actif 151 / 156 40% 3 03.05.2027 -
Juanlu Bournemouth Actif 144 / 148 40% 1 02.05.2027 -
Óscar Mingueza Crystal Palace Actif 148 / 150 40% 7 29.04.2027 -
Abner Vinicius Olympique Lyonnais Actif 143 / 140 40% 8 28.04.2027 -
Yehor Yarmoliuk Brentford Actif 142 / 146 40% 3 25.04.2027 -
Ryan Sessegnon Fulham Actif 150 / 148 40% 3 25.04.2027 -
Jarrad Branthwaite Everton Actif 159 / 162 40% 1 24.04.2027 -
Diego Coppola Paris FC Actif 133 / 149 40% 7 21.04.2027 -
Tiago Santos LOSC Lille Actif 149 / 151 40% 5 21.04.2027 -
Khéphren Thuram Juventus Perdu 164 / 164 40% 6 15.04.2027 -
Adrien Truffert Bournemouth Actif 156 / 150 40% 6 13.04.2027 -
Pedro Porro Tottenham Actif 143 / 151 40% 2 13.04.2027 -
Moisés Caicedo Chelsea Actif 165 / 163 40% 3 10.04.2027 -
Willian Pacho Juventus Actif 166 / 169 40% 4 09.04.2027 -
Álex Valle Como Actif 141 / 149 40% 1 07.04.2027 -
Quinten Timber Crystal Palace Actif 148 / 145 40% 4 06.04.2027 -
Bright Arrey-Mbi Braga Actif 137 / 124 40% 1 01.04.2027 -
Wilfried Singo Galatasaray Actif 148 / 129 40% 1 28.03.2027 -
Evan N'Dicka AS Roma Actif 152 / 154 40% 2 26.03.2027 -
Micky van de Ven Tottenham Actif 156 / 149 40% 2 24.03.2027 -
Riquelme Thompson-Jones Shrewsbury Town Actif 97 / 119 40% 2 07.03.2027 -
Ollie Scarles Chelsea Actif 127 / 143 40% 1 07.03.2027 -
Bastien Meupiyou Alverca Actif 125 / 120 40% 1 07.03.2027 -
Louis Leroux FC Nantes Actif 128 / 117 65% 2 05.03.2027 Approuver
Amine Boukamir Charleroi Actif 104 / 102 40% 3 03.03.2027 -
Thomas Alderweireld Dijon Actif 126 / 119 40% 1 03.03.2027 -
Nico O'Reilly Manchester City Actif 154 / 151 40% 1 03.03.2027 -
Vitinha Paris Saint-Germain Actif 173 / 176 40% 8 23.02.2027 -
Lucas Da Cunha Como Actif 149 / 140 40% 1 23.02.2027 -
Bradley Locko Stade Brestois Actif 128 / 133 40% 2 20.02.2027 -
Christian Krasnodar Actif 135 / 130 40% 3 15.02.2027 -
Yacine Adli Al-Shabab Actif 138 / 128 40% 2 09.02.2027 -
Joaquin Seys Club Brugge Actif 126 / 121 40% 1 06.02.2027 -
Enzo Koffi FC Nantes Actif 106 / 102 40% 1 06.02.2027 -
Milan Roganović Racing Genk Actif 103 / 126 40% 1 04.02.2027 -
Gady Beyuku Blackburn Rovers Actif 111 / 110 40% 1 02.02.2027 -
Saman Taremi Padideh Actif 106 / 116 40% 1 02.02.2027 -
Alpha Touré FC Metz Actif 112 / 117 40% 1 02.02.2027 -
Karim Coulibaly RC Strasbourg Actif 111 / 140 40% 1 01.02.2027 -
Ibrahim Coulibaly Clermont Foot Actif 114 / 101 40% 1 01.02.2027 -
Frédéric Guilbert FC Nantes Actif 128 / 129 65% 1 25.01.2027 Approuver
Konstantin Tyukavin Arsenal Négociation 132 / 133 66% 1 18.01.2027 Approuver
Aimé Omgba KAA Gent Actif 118 / 125 40% 5 12.01.2027 -
Bill Antonio KV Mechelen Actif 122 / 115 40% 1 12.01.2027 -
Tristan Crama Millwall Actif 131 / 125 40% 1 12.01.2027 -
Lautaro Martínez Inter Actif 169 / 173 40% 1 11.01.2027 -
Mohammed Kudus Tottenham Actif 162 / 148 40% 1 11.01.2027 -
Enzo Le Fée Sunderland Actif 147 / 130 40% 7 22.12.2026 -
Adriano Bertaccini Anderlecht Actif 120 / 118 40% 7 19.12.2026 -
Dylan Ourega Westerlo Actif 115 / 107 40% 9 18.12.2026 -
Thorgan Castagne KV Oostende Actif 117 / 130 40% 3 18.12.2026 -
Abdelkahar Kadri KAA Gent Actif 126 / 128 40% 5 16.12.2026 -
Osame Sahraoui LOSC Lille Perdu 141 / 135 40% 6 15.12.2026 -
Thibaud Verlinden OH Leuven Actif 123 / 115 40% 1 15.12.2026 -
Enzo Loiodice KAA Gent Actif 138 / 139 40% 3 14.12.2026 -
Mamadou Diakhon Club Brugge Actif 124 / 123 40% 5 13.12.2026 -
Pavel Šulc Olympique Lyonnais Actif 149 / 144 40% 1 13.12.2026 -
Sofyan Chader Basel Actif 120 / 118 40% 4 09.12.2026 -
Carlos Álvarez Club America Actif 134 / 128 40% 1 07.12.2026 -
Marley Aké Zulte Waregem Actif 115 / 118 40% 3 03.12.2026 -
Chris Lokesa Waasland-Beveren Actif 124 / 124 40% 2 30.11.2026 -
Ilias Sebaoui Sint-Truiden Actif 132 / 121 40% 4 30.11.2026 -
Mario Stroeykens Anderlecht Actif 132 / 125 40% 5 10.11.2026 -
Ilyes Najim Waasland-Beveren Actif 110 / 117 40% 4 07.11.2026 -
Iliman N'Diaye Everton Actif 155 / 149 40% 2 06.11.2026 -
Matisse Samoise KAA Gent Actif 113 / 124 40% 2 22.10.2026 -
Antoine Colassin Charleroi Actif 113 / 116 40% 1 21.10.2026 -
Henok Teklab OH Leuven Actif 125 / 117 40% 1 20.10.2026 -
Lamine Cissé Peterborough United Actif 127 / 129 40% 1 18.10.2026 -
Daan Heymans Racing Genk Actif 121 / 123 40% 3 11.10.2026 -
Tristan Degreef Anderlecht Actif 117 / 122 40% 1 04.10.2026 -
Hakim Guenouche Genoa Actif 112 / 126 40% 1 02.10.2026 -
Sylvester Jasper Standard Liege Actif 113 / 112 40% 1 02.10.2026 -
Ryan Merlen Sint-Truiden Actif 104 / 120 40% 2 01.10.2026 -
Achraf Hakimi Paris Saint-Germain Actif 171 / 165 40% 1 25.09.2026 -
Wilson Isidor Sunderland Actif 127 / 139 40% 1 22.09.2026 -
Thérence Koudou KV Mechelen Actif 102 / 117 40% 1 07.09.2026 -
Odsonne Édouard Paris Saint-Germain Actif 128 / 133 40% 1 25.08.2026 -
Dominic Calvert-Lewin FC Nantes Actif 142 / 146 40% 1 25.08.2026 -
Ousmane Dembélé Paris Saint-Germain Actif 177 / 195 40% 1 18.08.2026 -
Rico Lewis Manchester City Actif 142 / 164 40% 1 09.08.2026 -
Lewis Hall Newcastle United Actif 139 / 153 40% 1 09.08.2026 -
Jarrod Bowen West Ham United Actif 158 / 147 40% 1 01.08.2026 -
Antoine Semenyo Manchester City Actif 156 / 145 40% 1 01.08.2026 -
Kai Havertz Arsenal Actif 151 / 152 40% 1 01.08.2026 -